sensor_id;sensor_type;location;lat;lon;timestamp;P1;durP1;ratioP1;P2;durP2;ratioP2
41255;SDS011;26989;45.524;10.938;2022-10-30T00:00:39;6.50;;;2.72;;
41255;SDS011;26989;45.524;10.938;2022-10-30T00:03:13;9.35;;;3.45;;
41255;SDS011;26989;45.524;10.938;2022-10-30T00:05:44;7.00;;;3.13;;
41255;SDS011;26989;45.524;10.938;2022-10-30T00:08:13;8.10;;;2.70;;
41255;SDS011;26989;45.524;10.938;2022-10-30T00:10:42;6.47;;;2.95;;
41255;SDS011;26989;45.524;10.938;2022-10-30T00:13:09;8.82;;;2.95;;
41255;SDS011;26989;45.524;10.938;2022-10-30T00:15:37;9.70;;;3.17;;
41255;SDS011;26989;45.524;10.938;2022-10-30T00:18:04;4.88;;;2.53;;
41255;SDS011;26989;45.524;10.938;2022-10-30T00:20:31;7.55;;;3.10;;
41255;SDS011;26989;45.524;10.938;2022-10-30T00:23:00;6.65;;;2.75;;
41255;SDS011;26989;45.524;10.938;2022-10-30T00:25:27;6.93;;;3.28;;
41255;SDS011;26989;45.524;10.938;2022-10-30T00:27:54;7.85;;;3.20;;
41255;SDS011;26989;45.524;10.938;2022-10-30T00:30:21;11.35;;;3.20;;
41255;SDS011;26989;45.524;10.938;2022-10-30T00:32:47;8.52;;;3.10;;
41255;SDS011;26989;45.524;10.938;2022-10-30T00:35:14;6.15;;;2.95;;
41255;SDS011;26989;45.524;10.938;2022-10-30T00:37:41;9.05;;;2.92;;
41255;SDS011;26989;45.524;10.938;2022-10-30T00:40:11;10.00;;;3.08;;
41255;SDS011;26989;45.524;10.938;2022-10-30T00:42:44;11.88;;;3.20;;
41255;SDS011;26989;45.524;10.938;2022-10-30T00:45:11;12.00;;;3.92;;
41255;SDS011;26989;45.524;10.938;2022-10-30T00:47:48;12.95;;;4.85;;
41255;SDS011;26989;45.524;10.938;2022-10-30T00:50:29;9.23;;;3.78;;
41255;SDS011;26989;45.524;10.938;2022-10-30T00:53:04;9.57;;;4.75;;
41255;SDS011;26989;45.524;10.938;2022-10-30T00:55:36;9.73;;;4.85;;
41255;SDS011;26989;45.524;10.938;2022-10-30T00:58:08;8.27;;;3.65;;
41255;SDS011;26989;45.524;10.938;2022-10-30T01:00:38;5.50;;;2.92;;
41255;SDS011;26989;45.524;10.938;2022-10-30T01:03:07;9.80;;;4.10;;
41255;SDS011;26989;45.524;10.938;2022-10-30T01:05:34;8.00;;;3.35;;
41255;SDS011;26989;45.524;10.938;2022-10-30T01:08:01;7.35;;;2.72;;
41255;SDS011;26989;45.524;10.938;2022-10-30T01:10:28;12.00;;;3.28;;
41255;SDS011;26989;45.524;10.938;2022-10-30T01:12:55;6.97;;;2.97;;
41255;SDS011;26989;45.524;10.938;2022-10-30T01:15:34;7.15;;;3.05;;
41255;SDS011;26989;45.524;10.938;2022-10-30T01:33:59;11.73;;;3.97;;
41255;SDS011;26989;45.524;10.938;2022-10-30T01:39:15;8.73;;;3.15;;
41255;SDS011;26989;45.524;10.938;2022-10-30T01:41:51;6.75;;;3.30;;
41255;SDS011;26989;45.524;10.938;2022-10-30T01:44:29;8.07;;;4.05;;
41255;SDS011;26989;45.524;10.938;2022-10-30T01:49:43;7.50;;;3.47;;
41255;SDS011;26989;45.524;10.938;2022-10-30T01:55:18;6.63;;;3.53;;
41255;SDS011;26989;45.524;10.938;2022-10-30T01:58:20;7.55;;;3.88;;
41255;SDS011;26989;45.524;10.938;2022-10-30T02:01:02;9.98;;;3.95;;
41255;SDS011;26989;45.524;10.938;2022-10-30T02:03:30;10.60;;;3.72;;
41255;SDS011;26989;45.524;10.938;2022-10-30T02:05:57;9.50;;;4.22;;
41255;SDS011;26989;45.524;10.938;2022-10-30T02:08:23;11.00;;;3.50;;
41255;SDS011;26989;45.524;10.938;2022-10-30T02:10:51;6.22;;;3.20;;
41255;SDS011;26989;45.524;10.938;2022-10-30T02:13:19;7.18;;;3.78;;
41255;SDS011;26989;45.524;10.938;2022-10-30T02:15:46;8.73;;;3.55;;
41255;SDS011;26989;45.524;10.938;2022-10-30T02:18:14;8.40;;;3.25;;
41255;SDS011;26989;45.524;10.938;2022-10-30T02:20:41;13.52;;;3.60;;
41255;SDS011;26989;45.524;10.938;2022-10-30T02:23:08;13.63;;;3.85;;
41255;SDS011;26989;45.524;10.938;2022-10-30T02:25:41;11.77;;;3.67;;
41255;SDS011;26989;45.524;10.938;2022-10-30T02:28:07;5.75;;;3.30;;
41255;SDS011;26989;45.524;10.938;2022-10-30T02:30:34;8.20;;;3.05;;
41255;SDS011;26989;45.524;10.938;2022-10-30T02:33:01;8.32;;;3.50;;
41255;SDS011;26989;45.524;10.938;2022-10-30T02:35:28;7.90;;;3.22;;
41255;SDS011;26989;45.524;10.938;2022-10-30T02:37:56;8.68;;;3.90;;
41255;SDS011;26989;45.524;10.938;2022-10-30T02:40:23;8.07;;;3.30;;
41255;SDS011;26989;45.524;10.938;2022-10-30T02:42:50;9.35;;;2.90;;
41255;SDS011;26989;45.524;10.938;2022-10-30T02:45:18;10.80;;;3.38;;
41255;SDS011;26989;45.524;10.938;2022-10-30T02:47:45;12.13;;;4.70;;
41255;SDS011;26989;45.524;10.938;2022-10-30T02:50:12;8.30;;;3.42;;
41255;SDS011;26989;45.524;10.938;2022-10-30T02:52:39;8.10;;;2.95;;
41255;SDS011;26989;45.524;10.938;2022-10-30T02:55:06;8.15;;;3.70;;
41255;SDS011;26989;45.524;10.938;2022-10-30T02:57:33;6.90;;;2.65;;
41255;SDS011;26989;45.524;10.938;2022-10-30T03:00:00;4.93;;;2.47;;
41255;SDS011;26989;45.524;10.938;2022-10-30T03:02:26;7.18;;;2.72;;
41255;SDS011;26989;45.524;10.938;2022-10-30T03:04:53;11.70;;;2.72;;
41255;SDS011;26989;45.524;10.938;2022-10-30T03:07:20;10.93;;;2.58;;
41255;SDS011;26989;45.524;10.938;2022-10-30T03:09:47;5.95;;;2.42;;
41255;SDS011;26989;45.524;10.938;2022-10-30T03:12:13;9.35;;;2.95;;
41255;SDS011;26989;45.524;10.938;2022-10-30T03:14:40;7.20;;;2.42;;
41255;SDS011;26989;45.524;10.938;2022-10-30T03:17:07;7.00;;;2.55;;
41255;SDS011;26989;45.524;10.938;2022-10-30T03:19:34;10.55;;;2.15;;
41255;SDS011;26989;45.524;10.938;2022-10-30T03:22:01;8.00;;;2.78;;
41255;SDS011;26989;45.524;10.938;2022-10-30T03:24:28;8.18;;;2.28;;
41255;SDS011;26989;45.524;10.938;2022-10-30T03:26:55;7.82;;;2.63;;
41255;SDS011;26989;45.524;10.938;2022-10-30T03:29:22;6.40;;;2.58;;
41255;SDS011;26989;45.524;10.938;2022-10-30T03:31:48;6.38;;;2.45;;
41255;SDS011;26989;45.524;10.938;2022-10-30T03:34:15;13.32;;;2.45;;
41255;SDS011;26989;45.524;10.938;2022-10-30T03:36:42;6.03;;;2.03;;
41255;SDS011;26989;45.524;10.938;2022-10-30T03:39:09;10.93;;;2.75;;
41255;SDS011;26989;45.524;10.938;2022-10-30T03:41:35;6.22;;;2.78;;
41255;SDS011;26989;45.524;10.938;2022-10-30T03:44:02;8.52;;;2.80;;
41255;SDS011;26989;45.524;10.938;2022-10-30T03:46:29;8.95;;;2.95;;
41255;SDS011;26989;45.524;10.938;2022-10-30T03:48:56;8.93;;;3.58;;
41255;SDS011;26989;45.524;10.938;2022-10-30T03:51:23;10.73;;;3.28;;
41255;SDS011;26989;45.524;10.938;2022-10-30T03:53:50;9.93;;;2.50;;
41255;SDS011;26989;45.524;10.938;2022-10-30T03:56:17;7.88;;;3.13;;
41255;SDS011;26989;45.524;10.938;2022-10-30T03:58:45;8.30;;;2.60;;
41255;SDS011;26989;45.524;10.938;2022-10-30T04:01:11;10.13;;;2.65;;
41255;SDS011;26989;45.524;10.938;2022-10-30T04:03:38;9.95;;;3.55;;
41255;SDS011;26989;45.524;10.938;2022-10-30T04:06:05;8.57;;;3.20;;
41255;SDS011;26989;45.524;10.938;2022-10-30T04:08:32;21.67;;;4.82;;
41255;SDS011;26989;45.524;10.938;2022-10-30T04:10:59;13.63;;;4.05;;
41255;SDS011;26989;45.524;10.938;2022-10-30T04:13:26;10.43;;;2.88;;
41255;SDS011;26989;45.524;10.938;2022-10-30T04:15:53;6.30;;;1.88;;
41255;SDS011;26989;45.524;10.938;2022-10-30T04:18:24;11.35;;;2.85;;
41255;SDS011;26989;45.524;10.938;2022-10-30T04:20:51;6.82;;;1.80;;
41255;SDS011;26989;45.524;10.938;2022-10-30T04:23:18;9.38;;;2.72;;
41255;SDS011;26989;45.524;10.938;2022-10-30T04:25:46;8.43;;;2.47;;
41255;SDS011;26989;45.524;10.938;2022-10-30T04:28:13;6.28;;;2.95;;
41255;SDS011;26989;45.524;10.938;2022-10-30T04:30:40;8.30;;;2.40;;
41255;SDS011;26989;45.524;10.938;2022-10-30T04:33:09;6.53;;;2.20;;
41255;SDS011;26989;45.524;10.938;2022-10-30T04:35:37;9.68;;;2.70;;
41255;SDS011;26989;45.524;10.938;2022-10-30T04:38:08;10.20;;;3.28;;
41255;SDS011;26989;45.524;10.938;2022-10-30T04:40:37;6.15;;;2.70;;
41255;SDS011;26989;45.524;10.938;2022-10-30T04:43:06;14.95;;;2.35;;
41255;SDS011;26989;45.524;10.938;2022-10-30T04:45:34;8.07;;;1.88;;
41255;SDS011;26989;45.524;10.938;2022-10-30T04:50:30;8.90;;;2.38;;
41255;SDS011;26989;45.524;10.938;2022-10-30T04:53:01;8.57;;;2.13;;
41255;SDS011;26989;45.524;10.938;2022-10-30T04:55:31;9.88;;;2.22;;
41255;SDS011;26989;45.524;10.938;2022-10-30T04:57:58;6.45;;;1.90;;
41255;SDS011;26989;45.524;10.938;2022-10-30T05:00:28;8.95;;;2.67;;
41255;SDS011;26989;45.524;10.938;2022-10-30T05:02:58;9.63;;;2.53;;
41255;SDS011;26989;45.524;10.938;2022-10-30T05:05:26;6.45;;;1.80;;
41255;SDS011;26989;45.524;10.938;2022-10-30T05:07:54;7.50;;;2.22;;
41255;SDS011;26989;45.524;10.938;2022-10-30T05:10:22;10.65;;;2.42;;
41255;SDS011;26989;45.524;10.938;2022-10-30T05:12:50;13.02;;;1.85;;
41255;SDS011;26989;45.524;10.938;2022-10-30T05:15:18;9.35;;;2.03;;
41255;SDS011;26989;45.524;10.938;2022-10-30T05:17:49;10.80;;;1.70;;
41255;SDS011;26989;45.524;10.938;2022-10-30T05:20:17;7.38;;;1.65;;
41255;SDS011;26989;45.524;10.938;2022-10-30T05:22:44;5.45;;;1.58;;
41255;SDS011;26989;45.524;10.938;2022-10-30T05:25:11;6.65;;;2.00;;
41255;SDS011;26989;45.524;10.938;2022-10-30T05:27:38;7.20;;;1.67;;
41255;SDS011;26989;45.524;10.938;2022-10-30T05:30:05;7.00;;;1.58;;
41255;SDS011;26989;45.524;10.938;2022-10-30T05:32:32;5.90;;;1.88;;
41255;SDS011;26989;45.524;10.938;2022-10-30T05:34:59;11.23;;;1.80;;
41255;SDS011;26989;45.524;10.938;2022-10-30T05:37:26;9.35;;;1.80;;
41255;SDS011;26989;45.524;10.938;2022-10-30T05:39:53;8.43;;;1.60;;
41255;SDS011;26989;45.524;10.938;2022-10-30T05:42:20;8.32;;;2.08;;
41255;SDS011;26989;45.524;10.938;2022-10-30T05:44:47;6.63;;;2.00;;
41255;SDS011;26989;45.524;10.938;2022-10-30T05:47:26;7.97;;;2.03;;
41255;SDS011;26989;45.524;10.938;2022-10-30T05:49:53;11.98;;;3.33;;
41255;SDS011;26989;45.524;10.938;2022-10-30T05:52:19;12.05;;;1.83;;
41255;SDS011;26989;45.524;10.938;2022-10-30T05:54:46;8.93;;;2.00;;
41255;SDS011;26989;45.524;10.938;2022-10-30T05:57:13;7.72;;;1.92;;
41255;SDS011;26989;45.524;10.938;2022-10-30T05:59:40;7.95;;;1.85;;
41255;SDS011;26989;45.524;10.938;2022-10-30T06:02:07;9.75;;;2.78;;
41255;SDS011;26989;45.524;10.938;2022-10-30T06:04:34;7.65;;;2.13;;
41255;SDS011;26989;45.524;10.938;2022-10-30T06:07:00;8.27;;;2.63;;
41255;SDS011;26989;45.524;10.938;2022-10-30T06:09:27;8.75;;;1.65;;
41255;SDS011;26989;45.524;10.938;2022-10-30T06:11:54;9.32;;;3.33;;
41255;SDS011;26989;45.524;10.938;2022-10-30T06:14:21;8.65;;;2.15;;
41255;SDS011;26989;45.524;10.938;2022-10-30T06:16:47;9.30;;;2.40;;
41255;SDS011;26989;45.524;10.938;2022-10-30T06:19:14;13.07;;;3.65;;
41255;SDS011;26989;45.524;10.938;2022-10-30T06:21:44;8.82;;;2.67;;
41255;SDS011;26989;45.524;10.938;2022-10-30T06:24:11;8.75;;;2.42;;
41255;SDS011;26989;45.524;10.938;2022-10-30T06:26:39;8.65;;;2.28;;
41255;SDS011;26989;45.524;10.938;2022-10-30T06:29:06;10.23;;;2.60;;
41255;SDS011;26989;45.524;10.938;2022-10-30T06:31:33;8.38;;;2.95;;
41255;SDS011;26989;45.524;10.938;2022-10-30T06:33:59;7.82;;;1.90;;
41255;SDS011;26989;45.524;10.938;2022-10-30T06:36:26;8.45;;;2.13;;
41255;SDS011;26989;45.524;10.938;2022-10-30T06:38:53;8.65;;;2.50;;
41255;SDS011;26989;45.524;10.938;2022-10-30T06:41:20;5.70;;;1.67;;
41255;SDS011;26989;45.524;10.938;2022-10-30T06:43:54;6.43;;;1.83;;
41255;SDS011;26989;45.524;10.938;2022-10-30T06:46:21;9.02;;;2.08;;
41255;SDS011;26989;45.524;10.938;2022-10-30T06:48:54;9.60;;;2.30;;
41255;SDS011;26989;45.524;10.938;2022-10-30T06:51:21;9.45;;;3.20;;
41255;SDS011;26989;45.524;10.938;2022-10-30T06:53:48;8.10;;;1.90;;
41255;SDS011;26989;45.524;10.938;2022-10-30T06:56:14;6.72;;;2.08;;
41255;SDS011;26989;45.524;10.938;2022-10-30T06:58:41;9.65;;;2.78;;
41255;SDS011;26989;45.524;10.938;2022-10-30T07:01:08;11.60;;;2.17;;
41255;SDS011;26989;45.524;10.938;2022-10-30T07:03:35;10.23;;;2.72;;
41255;SDS011;26989;45.524;10.938;2022-10-30T07:06:02;11.23;;;2.90;;
41255;SDS011;26989;45.524;10.938;2022-10-30T07:08:29;8.43;;;2.75;;
41255;SDS011;26989;45.524;10.938;2022-10-30T07:10:56;9.38;;;2.83;;
41255;SDS011;26989;45.524;10.938;2022-10-30T07:13:23;7.07;;;2.45;;
41255;SDS011;26989;45.524;10.938;2022-10-30T07:15:50;9.38;;;3.55;;
41255;SDS011;26989;45.524;10.938;2022-10-30T07:18:17;8.05;;;2.33;;
41255;SDS011;26989;45.524;10.938;2022-10-30T07:20:44;11.70;;;3.42;;
41255;SDS011;26989;45.524;10.938;2022-10-30T07:23:10;13.38;;;3.25;;
41255;SDS011;26989;45.524;10.938;2022-10-30T07:25:37;8.80;;;3.13;;
41255;SDS011;26989;45.524;10.938;2022-10-30T07:28:04;9.20;;;3.83;;
41255;SDS011;26989;45.524;10.938;2022-10-30T07:30:31;12.90;;;4.63;;
41255;SDS011;26989;45.524;10.938;2022-10-30T07:33:01;15.52;;;6.63;;
41255;SDS011;26989;45.524;10.938;2022-10-30T07:35:30;11.77;;;5.00;;
41255;SDS011;26989;45.524;10.938;2022-10-30T07:38:01;15.35;;;5.40;;
41255;SDS011;26989;45.524;10.938;2022-10-30T07:40:30;12.02;;;5.25;;
41255;SDS011;26989;45.524;10.938;2022-10-30T07:42:58;15.88;;;7.07;;
41255;SDS011;26989;45.524;10.938;2022-10-30T07:45:26;14.70;;;6.70;;
41255;SDS011;26989;45.524;10.938;2022-10-30T07:47:54;12.73;;;6.15;;
41255;SDS011;26989;45.524;10.938;2022-10-30T07:50:22;14.70;;;5.65;;
41255;SDS011;26989;45.524;10.938;2022-10-30T07:52:49;13.15;;;4.28;;
41255;SDS011;26989;45.524;10.938;2022-10-30T07:55:16;14.05;;;4.03;;
41255;SDS011;26989;45.524;10.938;2022-10-30T07:57:43;10.88;;;3.58;;
41255;SDS011;26989;45.524;10.938;2022-10-30T08:00:10;10.02;;;4.07;;
41255;SDS011;26989;45.524;10.938;2022-10-30T08:02:39;8.75;;;3.70;;
41255;SDS011;26989;45.524;10.938;2022-10-30T08:05:06;10.85;;;4.32;;
41255;SDS011;26989;45.524;10.938;2022-10-30T08:07:35;16.75;;;5.13;;
41255;SDS011;26989;45.524;10.938;2022-10-30T08:10:03;13.77;;;5.45;;
41255;SDS011;26989;45.524;10.938;2022-10-30T08:12:32;12.02;;;4.30;;
41255;SDS011;26989;45.524;10.938;2022-10-30T08:14:59;9.48;;;4.35;;
41255;SDS011;26989;45.524;10.938;2022-10-30T08:17:26;11.75;;;5.32;;
41255;SDS011;26989;45.524;10.938;2022-10-30T08:19:53;16.05;;;4.55;;
41255;SDS011;26989;45.524;10.938;2022-10-30T08:22:22;9.70;;;4.32;;
41255;SDS011;26989;45.524;10.938;2022-10-30T08:24:49;16.55;;;4.53;;
41255;SDS011;26989;45.524;10.938;2022-10-30T08:27:16;12.65;;;4.55;;
41255;SDS011;26989;45.524;10.938;2022-10-30T08:29:42;20.77;;;5.55;;
41255;SDS011;26989;45.524;10.938;2022-10-30T08:32:09;12.27;;;5.15;;
41255;SDS011;26989;45.524;10.938;2022-10-30T08:34:36;13.10;;;5.30;;
41255;SDS011;26989;45.524;10.938;2022-10-30T08:37:03;11.32;;;5.32;;
41255;SDS011;26989;45.524;10.938;2022-10-30T08:39:29;13.05;;;5.43;;
41255;SDS011;26989;45.524;10.938;2022-10-30T08:41:57;21.85;;;6.63;;
41255;SDS011;26989;45.524;10.938;2022-10-30T08:44:26;13.70;;;7.63;;
41255;SDS011;26989;45.524;10.938;2022-10-30T08:46:53;23.30;;;11.10;;
41255;SDS011;26989;45.524;10.938;2022-10-30T08:49:20;24.17;;;10.68;;
41255;SDS011;26989;45.524;10.938;2022-10-30T08:51:47;21.33;;;10.73;;
41255;SDS011;26989;45.524;10.938;2022-10-30T08:54:13;20.42;;;11.75;;
41255;SDS011;26989;45.524;10.938;2022-10-30T08:56:40;22.08;;;11.25;;
41255;SDS011;26989;45.524;10.938;2022-10-30T08:59:07;23.52;;;11.00;;
41255;SDS011;26989;45.524;10.938;2022-10-30T09:01:34;22.27;;;11.40;;
41255;SDS011;26989;45.524;10.938;2022-10-30T09:04:02;23.77;;;11.32;;
41255;SDS011;26989;45.524;10.938;2022-10-30T09:06:29;20.50;;;12.48;;
41255;SDS011;26989;45.524;10.938;2022-10-30T09:08:56;26.85;;;13.20;;
41255;SDS011;26989;45.524;10.938;2022-10-30T09:11:23;23.08;;;13.27;;
41255;SDS011;26989;45.524;10.938;2022-10-30T09:13:50;25.58;;;12.48;;
41255;SDS011;26989;45.524;10.938;2022-10-30T09:16:17;24.25;;;12.38;;
41255;SDS011;26989;45.524;10.938;2022-10-30T09:18:44;18.85;;;12.25;;
41255;SDS011;26989;45.524;10.938;2022-10-30T09:21:11;23.13;;;12.55;;
41255;SDS011;26989;45.524;10.938;2022-10-30T09:23:37;24.25;;;12.82;;
41255;SDS011;26989;45.524;10.938;2022-10-30T09:26:04;28.05;;;13.40;;
41255;SDS011;26989;45.524;10.938;2022-10-30T09:28:31;21.95;;;12.55;;
41255;SDS011;26989;45.524;10.938;2022-10-30T09:30:59;25.90;;;13.10;;
41255;SDS011;26989;45.524;10.938;2022-10-30T09:33:27;29.17;;;14.75;;
41255;SDS011;26989;45.524;10.938;2022-10-30T09:35:54;30.08;;;14.68;;
41255;SDS011;26989;45.524;10.938;2022-10-30T09:38:21;26.92;;;14.02;;
41255;SDS011;26989;45.524;10.938;2022-10-30T09:46:01;30.55;;;14.85;;
41255;SDS011;26989;45.524;10.938;2022-10-30T09:54:54;25.20;;;13.73;;
41255;SDS011;26989;45.524;10.938;2022-10-30T10:03:48;25.50;;;13.55;;
41255;SDS011;26989;45.524;10.938;2022-10-30T10:06:26;23.65;;;12.07;;
41255;SDS011;26989;45.524;10.938;2022-10-30T10:09:00;21.40;;;11.77;;
41255;SDS011;26989;45.524;10.938;2022-10-30T10:14:16;22.88;;;12.27;;
41255;SDS011;26989;45.524;10.938;2022-10-30T10:16:50;26.98;;;11.73;;
41255;SDS011;26989;45.524;10.938;2022-10-30T10:19:25;27.25;;;11.35;;
41255;SDS011;26989;45.524;10.938;2022-10-30T10:27:13;23.33;;;10.40;;
41255;SDS011;26989;45.524;10.938;2022-10-30T10:35:45;21.92;;;10.95;;
41255;SDS011;26989;45.524;10.938;2022-10-30T10:38:26;24.55;;;10.63;;
41255;SDS011;26989;45.524;10.938;2022-10-30T10:52:15;22.48;;;10.63;;
41255;SDS011;26989;45.524;10.938;2022-10-30T10:54:49;21.27;;;11.32;;
41255;SDS011;26989;45.524;10.938;2022-10-30T10:57:24;25.38;;;11.45;;
41255;SDS011;26989;45.524;10.938;2022-10-30T11:00:00;25.58;;;11.85;;
41255;SDS011;26989;45.524;10.938;2022-10-30T11:08:17;25.83;;;10.70;;
41255;SDS011;26989;45.524;10.938;2022-10-30T11:10:59;29.35;;;10.48;;
41255;SDS011;26989;45.524;10.938;2022-10-30T11:13:28;26.17;;;12.40;;
41255;SDS011;26989;45.524;10.938;2022-10-30T11:18:44;27.58;;;11.43;;
41255;SDS011;26989;45.524;10.938;2022-10-30T11:21:17;24.48;;;11.45;;
41255;SDS011;26989;45.524;10.938;2022-10-30T11:23:47;25.80;;;11.70;;
41255;SDS011;26989;45.524;10.938;2022-10-30T11:31:43;25.73;;;11.93;;
41255;SDS011;26989;45.524;10.938;2022-10-30T11:36:43;24.55;;;10.30;;
41255;SDS011;26989;45.524;10.938;2022-10-30T11:39:15;25.45;;;10.60;;
41255;SDS011;26989;45.524;10.938;2022-10-30T11:41:46;21.88;;;10.52;;
41255;SDS011;26989;45.524;10.938;2022-10-30T11:44:21;26.67;;;10.00;;
41255;SDS011;26989;45.524;10.938;2022-10-30T11:46:51;19.27;;;10.23;;
41255;SDS011;26989;45.524;10.938;2022-10-30T11:49:26;19.50;;;9.90;;
41255;SDS011;26989;45.524;10.938;2022-10-30T11:51:55;24.33;;;10.43;;
41255;SDS011;26989;45.524;10.938;2022-10-30T11:54:22;20.15;;;9.38;;
41255;SDS011;26989;45.524;10.938;2022-10-30T11:56:50;18.30;;;9.85;;
41255;SDS011;26989;45.524;10.938;2022-10-30T11:59:20;19.42;;;9.90;;
41255;SDS011;26989;45.524;10.938;2022-10-30T12:02:02;24.25;;;10.15;;
41255;SDS011;26989;45.524;10.938;2022-10-30T12:04:45;17.75;;;8.80;;
41255;SDS011;26989;45.524;10.938;2022-10-30T12:09:48;19.60;;;9.77;;
41255;SDS011;26989;45.524;10.938;2022-10-30T12:12:22;23.17;;;11.48;;
41255;SDS011;26989;45.524;10.938;2022-10-30T12:14:50;23.80;;;10.68;;
41255;SDS011;26989;45.524;10.938;2022-10-30T12:17:18;23.38;;;11.57;;
41255;SDS011;26989;45.524;10.938;2022-10-30T12:19:47;22.45;;;10.63;;
41255;SDS011;26989;45.524;10.938;2022-10-30T12:24:57;19.75;;;10.00;;
41255;SDS011;26989;45.524;10.938;2022-10-30T12:27:26;23.70;;;9.63;;
41255;SDS011;26989;45.524;10.938;2022-10-30T12:29:58;24.00;;;9.70;;
41255;SDS011;26989;45.524;10.938;2022-10-30T12:33:09;22.25;;;10.32;;
41255;SDS011;26989;45.524;10.938;2022-10-30T12:38:38;19.27;;;8.95;;
41255;SDS011;26989;45.524;10.938;2022-10-30T12:41:15;22.15;;;9.20;;
41255;SDS011;26989;45.524;10.938;2022-10-30T12:44:14;22.45;;;9.60;;
41255;SDS011;26989;45.524;10.938;2022-10-30T12:51:48;17.40;;;8.73;;
41255;SDS011;26989;45.524;10.938;2022-10-30T12:54:28;19.33;;;8.68;;
41255;SDS011;26989;45.524;10.938;2022-10-30T12:57:04;18.92;;;8.40;;
41255;SDS011;26989;45.524;10.938;2022-10-30T13:02:35;16.70;;;9.43;;
41255;SDS011;26989;45.524;10.938;2022-10-30T13:07:50;23.60;;;8.30;;
41255;SDS011;26989;45.524;10.938;2022-10-30T13:10:39;19.02;;;9.23;;
41255;SDS011;26989;45.524;10.938;2022-10-30T13:13:20;18.35;;;8.90;;
41255;SDS011;26989;45.524;10.938;2022-10-30T13:15:54;18.20;;;8.27;;
41255;SDS011;26989;45.524;10.938;2022-10-30T13:18:25;17.58;;;7.90;;
41255;SDS011;26989;45.524;10.938;2022-10-30T13:29:11;16.77;;;8.32;;
41255;SDS011;26989;45.524;10.938;2022-10-30T13:31:57;19.02;;;8.40;;
41255;SDS011;26989;45.524;10.938;2022-10-30T13:37:47;24.95;;;10.32;;
41255;SDS011;26989;45.524;10.938;2022-10-30T13:40:35;19.45;;;8.60;;
41255;SDS011;26989;45.524;10.938;2022-10-30T13:53:47;19.48;;;8.45;;
41255;SDS011;26989;45.524;10.938;2022-10-30T13:56:46;27.63;;;8.32;;
41255;SDS011;26989;45.524;10.938;2022-10-30T14:04:58;17.00;;;7.95;;
41255;SDS011;26989;45.524;10.938;2022-10-30T14:10:11;18.60;;;7.40;;
41255;SDS011;26989;45.524;10.938;2022-10-30T14:12:52;17.52;;;7.28;;
41255;SDS011;26989;45.524;10.938;2022-10-30T14:15:33;16.55;;;6.63;;
41255;SDS011;26989;45.524;10.938;2022-10-30T14:20:41;19.73;;;7.68;;
41255;SDS011;26989;45.524;10.938;2022-10-30T14:28:32;16.98;;;7.47;;
41255;SDS011;26989;45.524;10.938;2022-10-30T14:36:11;18.42;;;7.55;;
41255;SDS011;26989;45.524;10.938;2022-10-30T14:38:38;24.27;;;7.50;;
41255;SDS011;26989;45.524;10.938;2022-10-30T14:41:09;15.82;;;7.20;;
41255;SDS011;26989;45.524;10.938;2022-10-30T14:43:50;23.65;;;7.65;;
41255;SDS011;26989;45.524;10.938;2022-10-30T14:49:33;21.55;;;7.75;;
41255;SDS011;26989;45.524;10.938;2022-10-30T14:57:50;20.38;;;9.00;;
41255;SDS011;26989;45.524;10.938;2022-10-30T15:02:54;18.83;;;8.25;;
41255;SDS011;26989;45.524;10.938;2022-10-30T15:13:47;16.55;;;7.03;;
41255;SDS011;26989;45.524;10.938;2022-10-30T15:16:21;18.10;;;7.55;;
41255;SDS011;26989;45.524;10.938;2022-10-30T15:18:54;15.05;;;5.63;;
41255;SDS011;26989;45.524;10.938;2022-10-30T15:21:27;18.13;;;6.03;;
41255;SDS011;26989;45.524;10.938;2022-10-30T15:23:59;13.20;;;6.40;;
41255;SDS011;26989;45.524;10.938;2022-10-30T15:26:29;15.65;;;6.00;;
41255;SDS011;26989;45.524;10.938;2022-10-30T15:29:01;14.02;;;5.95;;
41255;SDS011;26989;45.524;10.938;2022-10-30T15:31:29;12.85;;;6.15;;
41255;SDS011;26989;45.524;10.938;2022-10-30T15:33:56;15.70;;;6.13;;
41255;SDS011;26989;45.524;10.938;2022-10-30T15:44:21;14.68;;;6.75;;
41255;SDS011;26989;45.524;10.938;2022-10-30T15:46:49;13.73;;;6.72;;
41255;SDS011;26989;45.524;10.938;2022-10-30T15:49:20;16.33;;;6.63;;
41255;SDS011;26989;45.524;10.938;2022-10-30T15:51:58;14.25;;;6.43;;
41255;SDS011;26989;45.524;10.938;2022-10-30T15:54:28;11.80;;;6.50;;
41255;SDS011;26989;45.524;10.938;2022-10-30T15:56:57;12.73;;;5.95;;
41255;SDS011;26989;45.524;10.938;2022-10-30T15:59:49;13.23;;;6.82;;
41255;SDS011;26989;45.524;10.938;2022-10-30T16:02:20;19.70;;;7.07;;
41255;SDS011;26989;45.524;10.938;2022-10-30T16:04:49;17.42;;;7.10;;
41255;SDS011;26989;45.524;10.938;2022-10-30T16:07:20;16.23;;;6.50;;
41255;SDS011;26989;45.524;10.938;2022-10-30T16:12:25;14.52;;;7.15;;
41255;SDS011;26989;45.524;10.938;2022-10-30T16:14:54;16.45;;;6.15;;
41255;SDS011;26989;45.524;10.938;2022-10-30T16:17:23;16.58;;;7.00;;
41255;SDS011;26989;45.524;10.938;2022-10-30T16:19:52;19.63;;;8.00;;
41255;SDS011;26989;45.524;10.938;2022-10-30T16:22:26;13.82;;;6.35;;
41255;SDS011;26989;45.524;10.938;2022-10-30T16:24:55;16.40;;;6.35;;
41255;SDS011;26989;45.524;10.938;2022-10-30T16:27:23;14.75;;;7.05;;
41255;SDS011;26989;45.524;10.938;2022-10-30T16:29:51;16.27;;;5.90;;
41255;SDS011;26989;45.524;10.938;2022-10-30T16:32:26;14.20;;;6.28;;
41255;SDS011;26989;45.524;10.938;2022-10-30T16:35:01;12.55;;;6.85;;
41255;SDS011;26989;45.524;10.938;2022-10-30T16:37:33;19.50;;;8.98;;
41255;SDS011;26989;45.524;10.938;2022-10-30T16:40:04;14.38;;;6.50;;
41255;SDS011;26989;45.524;10.938;2022-10-30T16:42:40;13.80;;;8.10;;
41255;SDS011;26989;45.524;10.938;2022-10-30T16:47:41;18.50;;;8.05;;
41255;SDS011;26989;45.524;10.938;2022-10-30T16:50:13;16.27;;;8.68;;
41255;SDS011;26989;45.524;10.938;2022-10-30T16:52:41;17.02;;;7.30;;
41255;SDS011;26989;45.524;10.938;2022-10-30T16:55:21;21.92;;;7.43;;
41255;SDS011;26989;45.524;10.938;2022-10-30T16:57:52;21.95;;;7.45;;
41255;SDS011;26989;45.524;10.938;2022-10-30T17:00:23;15.82;;;7.00;;
41255;SDS011;26989;45.524;10.938;2022-10-30T17:02:53;20.95;;;8.52;;
41255;SDS011;26989;45.524;10.938;2022-10-30T17:05:30;22.30;;;7.45;;
41255;SDS011;26989;45.524;10.938;2022-10-30T17:10:58;16.33;;;7.07;;
41255;SDS011;26989;45.524;10.938;2022-10-30T17:13:28;14.38;;;7.47;;
41255;SDS011;26989;45.524;10.938;2022-10-30T17:15:56;16.45;;;7.20;;
41255;SDS011;26989;45.524;10.938;2022-10-30T17:18:28;17.75;;;8.15;;
41255;SDS011;26989;45.524;10.938;2022-10-30T17:21:00;17.77;;;9.00;;
41255;SDS011;26989;45.524;10.938;2022-10-30T17:23:34;16.77;;;7.93;;
41255;SDS011;26989;45.524;10.938;2022-10-30T17:26:08;18.77;;;8.25;;
41255;SDS011;26989;45.524;10.938;2022-10-30T17:28:36;23.15;;;8.20;;
41255;SDS011;26989;45.524;10.938;2022-10-30T17:33:47;18.83;;;9.15;;
41255;SDS011;26989;45.524;10.938;2022-10-30T17:36:49;14.60;;;8.10;;
41255;SDS011;26989;45.524;10.938;2022-10-30T17:39:16;21.85;;;8.55;;
41255;SDS011;26989;45.524;10.938;2022-10-30T17:41:43;18.80;;;7.63;;
41255;SDS011;26989;45.524;10.938;2022-10-30T17:44:16;15.15;;;6.72;;
41255;SDS011;26989;45.524;10.938;2022-10-30T17:46:46;13.07;;;6.80;;